Flugplatz Altenstadt Army Airfield

Bericht für ETHA

vom 14.12. um 00:20 UTC

Wind 20 kt aus 250°

Temperatur 2.0°C

Taupunkt -4.0°C

Luftfeuchtigkeit 64%

Luftdruck 993 hPa

ETHA 140020Z AUTO 25020KT //// // ////// 02/M04 Q0993 ///
Keine Prognose (TAF) verfügbar.
Impressum